createdAt,value
2018-09-24T00:03:51.269Z,8.26
2018-09-24T00:09:12.652Z,8.23
2018-09-24T00:14:31.895Z,8.25
2018-09-24T00:19:50.623Z,8.21
2018-09-24T00:25:09.517Z,8.20
2018-09-24T00:30:28.452Z,8.17
2018-09-24T00:35:47.195Z,8.12
2018-09-24T00:41:06.122Z,8.05
2018-09-24T00:46:24.995Z,7.99
2018-09-24T00:51:43.942Z,7.90
2018-09-24T00:57:02.738Z,7.86
2018-09-24T01:02:21.771Z,7.85
2018-09-24T01:07:41.091Z,7.80
2018-09-24T01:12:59.872Z,7.73
2018-09-24T01:18:18.685Z,7.77
2018-09-24T01:23:37.541Z,7.81
2018-09-24T01:28:56.322Z,7.79
2018-09-24T01:34:15.261Z,7.84
2018-09-24T01:39:35.029Z,7.83
2018-09-24T01:44:55.467Z,7.82
2018-09-24T01:50:14.341Z,7.80
2018-09-24T01:55:33.097Z,7.81
2018-09-24T02:00:51.853Z,7.77
2018-09-24T02:06:10.863Z,7.74
2018-09-24T02:11:30.728Z,7.65
2018-09-24T02:16:49.384Z,7.72
2018-09-24T02:22:08.411Z,7.73
2018-09-24T02:27:27.635Z,7.66
2018-09-24T02:32:46.429Z,7.67
2018-09-24T02:38:05.284Z,7.74
2018-09-24T02:43:25.548Z,7.72
2018-09-24T02:48:44.538Z,7.76
2018-09-24T02:54:03.321Z,7.71
2018-09-24T02:59:22.264Z,7.68
2018-09-24T03:04:41.244Z,7.64
2018-09-24T03:10:00.133Z,7.60
2018-09-24T03:15:19.314Z,7.56
2018-09-24T03:20:40.301Z,7.46
2018-09-24T03:25:59.790Z,7.48
2018-09-24T03:31:20.961Z,7.40
2018-09-24T03:36:40.980Z,7.38
2018-09-24T03:41:59.808Z,7.31
2018-09-24T03:47:19.300Z,7.22
2018-09-24T03:52:38.186Z,7.19
2018-09-24T03:57:57.188Z,7.24
2018-09-24T04:03:15.977Z,7.12
2018-09-24T04:08:39.756Z,7.04
2018-09-24T04:14:03.469Z,7.06
2018-09-24T04:19:27.294Z,7.14
2018-09-24T04:24:51.312Z,7.13
2018-09-24T04:30:15.001Z,7.12
2018-09-24T04:35:38.926Z,7.11
2018-09-24T04:41:02.902Z,7.05
2018-09-24T04:46:27.006Z,7.06
2018-09-24T04:51:51.020Z,7.04
2018-09-24T04:57:14.923Z,7.11
2018-09-24T05:02:39.615Z,7.33
2018-09-24T05:08:03.381Z,7.30
2018-09-24T05:13:27.162Z,7.34
2018-09-24T05:18:50.827Z,7.36
2018-09-24T05:24:14.623Z,7.37
2018-09-24T05:35:25.743Z,7.31
2018-09-24T05:40:49.540Z,7.37
2018-09-24T05:46:14.101Z,7.41
2018-09-24T05:51:37.831Z,7.32
2018-09-24T05:57:02.380Z,7.39
2018-09-24T06:02:26.197Z,7.42
2018-09-24T06:07:50.065Z,7.49
2018-09-24T06:13:14.114Z,7.53
2018-09-24T06:18:38.019Z,7.61
2018-09-24T06:24:10.851Z,7.69
2018-09-24T06:29:34.682Z,7.76
2018-09-24T06:34:58.564Z,7.85
2018-09-24T06:40:22.549Z,7.97
2018-09-24T06:45:46.542Z,8.08
2018-09-24T06:51:10.558Z,8.22
2018-09-24T06:56:34.554Z,8.34
2018-09-24T07:01:58.372Z,8.40
2018-09-24T07:07:22.222Z,8.43
2018-09-24T07:12:46.119Z,8.48
2018-09-24T07:18:09.928Z,8.62
2018-09-24T07:23:33.718Z,8.73
2018-09-24T07:28:57.440Z,8.93
2018-09-24T07:34:21.161Z,9.11
2018-09-24T07:39:45.111Z,9.18
2018-09-24T07:45:08.847Z,9.33
2018-09-24T07:50:32.567Z,9.37
2018-09-24T07:55:56.275Z,9.50
2018-09-24T08:01:20.368Z,9.61
2018-09-24T08:06:44.248Z,9.75
2018-09-24T08:12:08.195Z,9.91
2018-09-24T08:17:31.983Z,9.99
2018-09-24T08:22:55.740Z,9.89
2018-09-24T08:28:19.850Z,9.92
2018-09-24T08:33:43.607Z,10.08
2018-09-24T08:39:07.276Z,10.19
2018-09-24T08:44:31.259Z,10.37
2018-09-24T08:49:55.011Z,10.50
2018-09-24T08:55:18.933Z,10.57
2018-09-24T09:00:42.788Z,10.74
2018-09-24T09:06:06.665Z,10.91
2018-09-24T09:11:30.475Z,11.08
2018-09-24T09:16:54.261Z,11.22
2018-09-24T09:22:18.070Z,11.44
2018-09-24T09:27:41.789Z,11.67
2018-09-24T09:33:05.757Z,11.80
2018-09-24T09:38:29.688Z,11.96
2018-09-24T09:43:53.624Z,11.89
2018-09-24T09:49:17.379Z,11.86
2018-09-24T09:54:41.308Z,12.15
2018-09-24T10:00:05.242Z,12.32
2018-09-24T10:05:29.196Z,12.36
2018-09-24T10:10:53.241Z,12.19
2018-09-24T10:16:17.394Z,12.20
2018-09-24T10:21:41.354Z,12.42
2018-09-24T10:27:05.479Z,12.80
2018-09-24T10:32:29.321Z,13.12
2018-09-24T10:37:53.386Z,12.79
2018-09-24T10:43:17.294Z,12.68
2018-09-24T10:48:41.133Z,12.70
2018-09-24T10:54:04.880Z,12.70
2018-09-24T10:59:28.916Z,12.62
2018-09-24T11:04:52.889Z,12.74
2018-09-24T11:10:16.775Z,12.87
2018-09-24T11:15:40.765Z,12.43
2018-09-24T11:21:04.655Z,12.36
2018-09-24T11:37:40.370Z,12.65
2018-09-24T11:43:04.428Z,12.87
2018-09-24T11:48:28.387Z,13.05
2018-09-24T11:53:52.278Z,13.22
2018-09-24T11:59:16.233Z,13.43
2018-09-24T12:04:40.063Z,13.28
2018-09-24T12:10:04.015Z,13.68
2018-09-24T12:15:28.608Z,13.91
2018-09-24T12:20:52.671Z,13.77
2018-09-24T12:26:16.433Z,13.83
2018-09-24T12:31:40.176Z,13.48
2018-09-24T12:37:04.024Z,13.19
2018-09-24T12:42:27.862Z,13.00
2018-09-24T12:47:51.782Z,13.27
2018-09-24T12:53:15.593Z,13.52
2018-09-24T12:58:39.504Z,13.80
2018-09-24T13:04:03.140Z,13.94
2018-09-24T13:09:27.086Z,13.84
2018-09-24T13:14:50.903Z,13.73
2018-09-24T13:20:14.683Z,13.86
2018-09-24T13:25:38.476Z,13.89
2018-09-24T13:31:02.304Z,13.74
2018-09-24T13:36:26.340Z,13.95
2018-09-24T13:41:50.236Z,14.05
2018-09-24T13:53:01.388Z,14.13
2018-09-24T13:58:25.360Z,14.05
2018-09-24T14:03:49.198Z,13.84
2018-09-24T14:09:13.596Z,13.70
2018-09-24T14:14:37.373Z,13.50
2018-09-24T14:20:01.392Z,12.75
2018-09-24T14:25:25.336Z,12.12
2018-09-24T14:30:49.283Z,12.25
2018-09-24T14:36:13.500Z,12.27
2018-09-24T14:41:37.514Z,12.21
2018-09-24T14:47:01.514Z,12.28
2018-09-24T14:52:25.397Z,12.12
2018-09-24T14:57:49.081Z,12.13
2018-09-24T15:03:12.888Z,12.14
2018-09-24T15:08:36.790Z,12.20
2018-09-24T15:14:00.853Z,12.17
2018-09-24T15:19:24.584Z,12.15
2018-09-24T15:24:48.521Z,11.99
2018-09-24T15:30:12.267Z,11.97
2018-09-24T15:35:36.246Z,11.85
2018-09-24T15:41:00.288Z,11.86
2018-09-24T15:46:24.278Z,11.67
2018-09-24T15:51:48.194Z,11.67
2018-09-24T15:57:11.981Z,11.64
2018-09-24T16:02:35.768Z,11.78
2018-09-24T16:07:59.530Z,11.95
2018-09-24T16:13:23.206Z,11.87
2018-09-24T16:18:47.746Z,11.81
2018-09-24T16:24:11.751Z,11.82
2018-09-24T16:29:35.649Z,11.74
2018-09-24T16:34:59.866Z,11.66
2018-09-24T16:40:23.775Z,11.51
2018-09-24T16:45:47.707Z,11.43
2018-09-24T16:51:11.623Z,11.49
2018-09-24T16:56:35.578Z,11.40
2018-09-24T17:01:59.651Z,11.28
2018-09-24T17:07:23.564Z,11.11
2018-09-24T17:12:47.416Z,11.02
2018-09-24T17:18:11.496Z,10.89
2018-09-24T17:23:35.314Z,10.70
2018-09-24T17:28:59.252Z,10.59
2018-09-24T17:34:23.232Z,10.55
2018-09-24T17:39:47.168Z,10.49
2018-09-24T17:45:11.317Z,10.38
2018-09-24T17:50:35.051Z,10.27
2018-09-24T17:55:58.965Z,10.22
2018-09-24T18:01:23.117Z,9.85
2018-09-24T18:06:47.361Z,9.41
2018-09-24T18:12:11.326Z,9.13
2018-09-24T18:17:35.192Z,9.09
2018-09-24T18:22:59.114Z,9.00
2018-09-24T18:28:22.984Z,8.62
2018-09-24T18:33:47.030Z,8.79
2018-09-24T18:39:13.972Z,8.74
2018-09-24T18:44:37.813Z,8.92
2018-09-24T18:50:01.872Z,8.81
2018-09-24T18:55:25.574Z,8.75
2018-09-24T19:00:49.538Z,8.82
2018-09-24T19:06:13.575Z,8.81
2018-09-24T19:11:37.531Z,8.55
2018-09-24T19:17:01.307Z,8.60
2018-09-24T19:22:25.200Z,8.45
2018-09-24T19:27:49.109Z,8.46
2018-09-24T19:33:13.147Z,8.26
2018-09-24T19:38:37.281Z,8.06
2018-09-24T19:44:33.341Z,7.79
2018-09-24T19:49:57.184Z,7.96
2018-09-24T19:55:21.028Z,7.96
2018-09-24T20:00:44.854Z,7.98
2018-09-24T20:06:08.809Z,7.96
2018-09-24T20:11:32.692Z,7.92
2018-09-24T20:16:56.740Z,7.80
2018-09-24T20:22:20.611Z,7.74
2018-09-24T20:27:44.566Z,7.51
2018-09-24T20:33:08.510Z,7.50
2018-09-24T20:38:32.498Z,7.47
2018-09-24T20:43:56.298Z,7.44
2018-09-24T20:49:20.159Z,7.37
2018-09-24T20:54:43.866Z,7.32
2018-09-24T21:00:07.826Z,7.19
2018-09-24T21:05:31.838Z,6.95
2018-09-24T21:10:55.734Z,7.10
2018-09-24T21:16:19.421Z,7.04
2018-09-24T21:21:43.372Z,7.12
2018-09-24T21:27:07.147Z,7.02
2018-09-24T21:32:30.938Z,6.78
2018-09-24T21:37:54.720Z,6.78
2018-09-24T21:43:18.515Z,6.69
2018-09-24T21:48:43.413Z,6.72
2018-09-24T21:54:07.279Z,6.58
2018-09-24T21:59:31.120Z,6.45
2018-09-24T22:04:54.745Z,6.42
2018-09-24T22:10:18.671Z,6.49
2018-09-24T22:15:42.388Z,6.42
2018-09-24T22:21:06.381Z,6.28
2018-09-24T22:26:30.319Z,6.26
2018-09-24T22:31:54.061Z,6.21
2018-09-24T22:37:18.044Z,6.20
2018-09-24T22:42:41.908Z,6.10
2018-09-24T22:48:05.802Z,6.01
2018-09-24T22:53:29.772Z,5.89
2018-09-24T22:58:53.583Z,5.86
2018-09-24T23:04:17.296Z,5.82
2018-09-24T23:09:41.171Z,5.80
2018-09-24T23:15:04.885Z,5.80
2018-09-24T23:20:28.613Z,5.75
2018-09-24T23:25:53.134Z,5.81
2018-09-24T23:31:16.892Z,5.75
2018-09-24T23:36:40.658Z,5.70
2018-09-24T23:42:05.136Z,5.65
2018-09-24T23:47:28.941Z,5.59
2018-09-24T23:52:52.827Z,5.54
2018-09-24T23:58:16.801Z,5.49
